Time;durP1;ratioP1;P1;durP2;ratioP2;P2;SDS_P1;SDS_P2;PMS_P1;PMS_P2;Temp;Humidity;BMP_temperature;BMP_pressure;BME280_temperature;BME280_humidity;BME280_pressure;Samples;Min_cycle;Max_cycle;Signal;HPM_P1;HPM_P2
2022/06/17 00:01:46;;;;;;;;;;;18.90;51.00;;;;;;4995085;28;19917;-70
2022/06/17 00:04:12;;;;;;;;;;;18.80;50.80;;;;;;4994319;28;19948;-70
2022/06/17 00:06:39;;;;;;;;;;;18.80;50.40;;;;;;4994189;28;20416;-70
2022/06/17 00:09:06;;;;;;;;;;;18.80;50.40;;;;;;4996989;28;20293;-70
2022/06/17 00:11:33;;;;;;;;;;;18.80;50.30;;;;;;4996851;28;19914;-70
2022/06/17 00:13:59;;;;;;;;;;;18.70;50.30;;;;;;4995337;28;19913;-70
2022/06/17 00:16:25;;;;;;;;;;;18.80;50.30;;;;;;4994475;28;19925;-70
2022/06/17 00:18:51;;;;;;;;;;;18.80;50.20;;;;;;4994681;28;19913;-70
2022/06/17 00:21:28;;;;;;;;;;;18.80;50.20;;;;;;4994026;28;19946;-70
2022/06/17 00:23:54;;;;;;;;;;;18.80;50.50;;;;;;4995287;28;20189;-71
2022/06/17 00:26:19;;;;;;;;;;;18.80;51.20;;;;;;4993701;28;20274;-70
2022/06/17 00:28:45;;;;;;;;;;;18.70;51.70;;;;;;4993231;28;20393;-70
2022/06/17 00:31:11;;;;;;;;;;;18.70;51.70;;;;;;4994955;28;19972;-71
2022/06/17 00:33:36;;;;;;;;;;;18.60;51.90;;;;;;4995403;28;20141;-70
2022/06/17 00:36:03;;;;;;;;;;;18.60;51.50;;;;;;4994472;28;19925;-70
2022/06/17 00:38:29;;;;;;;;;;;18.50;51.50;;;;;;4994248;28;19921;-70
2022/06/17 00:40:56;;;;;;;;;;;18.50;51.20;;;;;;4996285;28;19952;-70
2022/06/17 00:43:22;;;;;;;;;;;18.40;51.10;;;;;;4991521;28;20016;-70
2022/06/17 00:45:51;;;;;;;;;;;18.40;51.30;;;;;;4994251;28;20032;-69
2022/06/17 00:48:23;;;;;;;;;;;18.30;51.70;;;;;;4994708;28;19925;-71
2022/06/17 00:50:52;;;;;;;;;;;18.30;51.70;;;;;;4993409;28;20408;-70
2022/06/17 00:53:19;;;;;;;;;;;18.30;51.20;;;;;;4992001;28;19918;-70
2022/06/17 00:55:56;;;;;;;;;;;18.20;51.20;;;;;;4992887;28;19913;-70
2022/06/17 00:58:24;;;;;;;;;;;18.20;51.60;;;;;;4991653;28;19913;-70
2022/06/17 01:00:53;;;;;;;;;;;18.30;51.60;;;;;;4996248;28;19924;-70
2022/06/17 01:03:21;;;;;;;;;;;18.30;51.50;;;;;;4992136;28;19913;-70
2022/06/17 01:05:49;;;;;;;;;;;18.30;51.40;;;;;;4993511;28;20031;-70
2022/06/17 01:09:56;;;;;;;;;;;18.40;51.40;;;;;;4994243;28;20399;-71
2022/06/17 01:11:05;;;;;;;;;;;18.40;51.20;;;;;;4989651;28;19975;-70
2022/06/17 01:16:06;;;;;;;;;;;18.30;51.00;;;;;;5677952;23;19932;-67
2022/06/17 01:18:34;;;;;;;;;;;18.30;51.30;;;;;;5013840;28;19921;-69
2022/06/17 01:21:02;;;;;;;;;;;18.20;51.50;;;;;;5014881;28;19925;-69
2022/06/17 01:23:28;;;;;;;;;;;18.10;51.90;;;;;;5020919;28;19925;-69
2022/06/17 01:25:54;;;;;;;;;;;18.00;51.50;;;;;;5016007;28;20007;-69
2022/06/17 01:28:19;;;;;;;;;;;18.00;51.60;;;;;;5015797;28;20455;-69
2022/06/17 01:30:54;;;;;;;;;;;18.00;51.60;;;;;;5004602;23;20452;-66
2022/06/17 01:33:33;;;;;;;;;;;17.90;52.20;;;;;;4972084;28;19961;-66
2022/06/17 01:35:59;;;;;;;;;;;17.90;51.90;;;;;;4957408;28;19977;-64
2022/06/17 01:38:26;;;;;;;;;;;17.80;52.40;;;;;;4957121;28;20147;-65
2022/06/17 01:40:53;;;;;;;;;;;17.80;53.40;;;;;;4957213;28;19914;-66
2022/06/17 01:43:20;;;;;;;;;;;17.80;52.80;;;;;;4958415;28;19961;-65
2022/06/17 01:45:49;;;;;;;;;;;17.70;52.00;;;;;;4956419;28;20715;-66
2022/06/17 01:48:16;;;;;;;;;;;17.70;51.80;;;;;;4955327;28;20021;-66
2022/06/17 01:50:43;;;;;;;;;;;17.70;51.80;;;;;;4956507;28;19918;-65
2022/06/17 01:53:12;;;;;;;;;;;17.80;51.70;;;;;;4957315;28;19918;-66
2022/06/17 01:55:43;;;;;;;;;;;17.80;51.70;;;;;;4960123;28;19914;-66
2022/06/17 01:58:13;;;;;;;;;;;17.80;51.80;;;;;;4954664;28;19942;-65
2022/06/17 02:00:41;;;;;;;;;;;17.80;51.70;;;;;;4955778;28;19950;-64
2022/06/17 02:03:07;;;;;;;;;;;17.90;51.70;;;;;;4957095;28;20400;-66
2022/06/17 02:05:33;;;;;;;;;;;17.90;51.60;;;;;;4957718;28;19972;-66
2022/06/17 02:08:01;;;;;;;;;;;18.00;51.70;;;;;;4954349;28;19965;-65
2022/06/17 02:10:37;;;;;;;;;;;17.90;51.50;;;;;;4952554;28;20352;-65
2022/06/17 02:13:04;;;;;;;;;;;17.90;51.50;;;;;;4956895;28;20289;-65
2022/06/17 02:15:29;;;;;;;;;;;17.80;51.50;;;;;;4957024;28;20039;-66
2022/06/17 02:17:55;;;;;;;;;;;17.80;51.50;;;;;;4958334;28;20349;-64
2022/06/17 02:20:22;;;;;;;;;;;17.80;51.50;;;;;;4957468;28;19914;-65
2022/06/17 02:22:47;;;;;;;;;;;17.80;51.50;;;;;;4956004;28;19968;-65
2022/06/17 02:25:16;;;;;;;;;;;17.80;51.50;;;;;;4956983;28;19921;-66
2022/06/17 02:27:43;;;;;;;;;;;17.70;51.40;;;;;;4955532;28;19933;-65
2022/06/17 02:30:09;;;;;;;;;;;17.70;51.50;;;;;;4955854;28;19925;-66
2022/06/17 02:32:36;;;;;;;;;;;17.60;51.50;;;;;;4956728;28;19922;-65
2022/06/17 02:35:13;;;;;;;;;;;17.60;51.50;;;;;;4957777;28;19918;-65
2022/06/17 02:37:39;;;;;;;;;;;17.50;51.60;;;;;;4955577;28;19957;-66
2022/06/17 02:40:21;;;;;;;;;;;17.50;51.80;;;;;;4959061;28;20338;-66
2022/06/17 02:42:47;;;;;;;;;;;17.40;51.80;;;;;;4958416;28;19925;-65
2022/06/17 02:45:15;;;;;;;;;;;17.30;51.80;;;;;;4951826;28;19914;-65
2022/06/17 02:47:41;;;;;;;;;;;17.30;52.00;;;;;;4956333;28;19924;-66
2022/06/17 02:50:07;;;;;;;;;;;17.30;52.00;;;;;;4957884;28;19925;-66
2022/06/17 02:52:35;;;;;;;;;;;17.20;52.10;;;;;;4956449;28;19925;-65
2022/06/17 02:55:03;;;;;;;;;;;17.20;52.40;;;;;;4959720;28;19914;-65
2022/06/17 02:57:30;;;;;;;;;;;17.10;52.20;;;;;;4952986;28;19918;-66
2022/06/17 03:00:04;;;;;;;;;;;17.00;53.00;;;;;;4955656;28;20061;-65
2022/06/17 03:02:31;;;;;;;;;;;16.90;52.40;;;;;;4955946;28;19954;-65
2022/06/17 03:04:58;;;;;;;;;;;16.80;52.30;;;;;;4958302;28;19925;-65
2022/06/17 03:07:25;;;;;;;;;;;16.70;52.60;;;;;;4953363;28;20454;-66
2022/06/17 03:09:51;;;;;;;;;;;16.70;52.80;;;;;;4955518;28;20049;-66
2022/06/17 03:12:19;;;;;;;;;;;16.60;53.00;;;;;;4956077;28;20394;-66
2022/06/17 03:14:48;;;;;;;;;;;16.50;53.60;;;;;;4956955;28;20428;-65
2022/06/17 03:17:15;;;;;;;;;;;16.50;53.40;;;;;;4954848;28;20542;-66
2022/06/17 03:19:40;;;;;;;;;;;16.40;53.60;;;;;;4956491;28;20292;-66
2022/06/17 03:22:07;;;;;;;;;;;16.40;53.60;;;;;;4955409;28;19945;-66
2022/06/17 03:24:52;;;;;;;;;;;16.30;54.70;;;;;;4955762;28;19972;-65
2022/06/17 03:27:38;;;;;;;;;;;16.30;54.10;;;;;;4956946;28;19961;-65
2022/06/17 03:30:04;;;;;;;;;;;16.20;53.70;;;;;;4955167;28;20286;-65
2022/06/17 03:32:35;;;;;;;;;;;16.30;54.30;;;;;;4954328;28;20404;-65
2022/06/17 03:35:01;;;;;;;;;;;16.20;54.20;;;;;;4958262;28;19927;-65
2022/06/17 03:37:38;;;;;;;;;;;16.10;54.00;;;;;;4955694;28;19922;-65
2022/06/17 03:40:07;;;;;;;;;;;16.10;54.00;;;;;;4957248;28;20297;-65
2022/06/17 03:42:32;;;;;;;;;;;16.10;53.90;;;;;;4955649;28;19926;-65
2022/06/17 03:45:01;;;;;;;;;;;16.10;53.90;;;;;;4957257;28;19925;-66
2022/06/17 03:47:41;;;;;;;;;;;16.10;53.90;;;;;;4955778;28;20060;-66
2022/06/17 03:50:11;;;;;;;;;;;16.00;54.00;;;;;;4956735;28;20344;-65
2022/06/17 03:52:40;;;;;;;;;;;16.00;54.00;;;;;;4956939;28;19914;-65
2022/06/17 03:55:08;;;;;;;;;;;16.00;54.40;;;;;;4956998;28;20115;-65
2022/06/17 03:57:33;;;;;;;;;;;16.00;54.40;;;;;;4956203;28;19973;-66
2022/06/17 03:59:59;;;;;;;;;;;16.00;54.20;;;;;;4955011;28;20448;-65
2022/06/17 04:02:29;;;;;;;;;;;16.00;54.40;;;;;;4954946;28;20340;-65
2022/06/17 04:04:55;;;;;;;;;;;16.00;55.80;;;;;;4956791;28;19914;-65
2022/06/17 04:07:21;;;;;;;;;;;16.00;54.60;;;;;;4955259;28;20351;-66
2022/06/17 04:09:48;;;;;;;;;;;16.00;54.40;;;;;;4954336;28;20016;-66
2022/06/17 04:12:14;;;;;;;;;;;16.10;54.30;;;;;;4953620;28;19950;-66
2022/06/17 04:14:45;;;;;;;;;;;16.10;54.30;;;;;;4953606;28;19918;-64
2022/06/17 04:17:14;;;;;;;;;;;16.20;54.40;;;;;;4953771;28;19930;-66
2022/06/17 04:19:40;;;;;;;;;;;16.30;54.40;;;;;;4956045;28;19925;-66
2022/06/17 04:22:13;;;;;;;;;;;16.30;54.40;;;;;;4957575;28;19918;-66
2022/06/17 04:24:40;;;;;;;;;;;16.30;54.30;;;;;;4955788;28;20017;-65
2022/06/17 04:27:07;;;;;;;;;;;16.30;54.30;;;;;;4954110;28;19926;-66
2022/06/17 04:29:43;;;;;;;;;;;16.40;54.40;;;;;;4955022;28;19918;-63
2022/06/17 04:32:21;;;;;;;;;;;16.40;54.40;;;;;;4957631;28;19925;-66
2022/06/17 04:34:46;;;;;;;;;;;16.40;54.40;;;;;;4960444;28;20290;-64
2022/06/17 04:37:19;;;;;;;;;;;16.40;54.50;;;;;;4972013;28;19922;-66
2022/06/17 04:39:50;;;;;;;;;;;16.50;54.50;;;;;;4959644;28;19922;-66
2022/06/17 04:42:18;;;;;;;;;;;16.60;54.60;;;;;;4957297;28;20353;-66
2022/06/17 04:44:44;;;;;;;;;;;16.60;55.20;;;;;;4959242;28;19962;-65
2022/06/17 04:47:12;;;;;;;;;;;16.60;54.50;;;;;;4959311;28;19960;-66
2022/06/17 04:49:40;;;;;;;;;;;16.70;54.60;;;;;;4958873;28;19914;-66
2022/06/17 04:52:11;;;;;;;;;;;16.70;54.40;;;;;;4959992;28;19918;-65
2022/06/17 04:54:38;;;;;;;;;;;16.80;54.60;;;;;;4957465;28;19918;-65
2022/06/17 04:57:04;;;;;;;;;;;16.80;54.40;;;;;;4958358;28;20016;-65
2022/06/17 04:59:37;;;;;;;;;;;16.90;54.50;;;;;;4958752;28;20403;-65
2022/06/17 05:02:05;;;;;;;;;;;16.90;54.60;;;;;;4957944;28;19926;-65
2022/06/17 05:04:31;;;;;;;;;;;17.00;54.40;;;;;;4958304;28;19937;-64
2022/06/17 05:06:57;;;;;;;;;;;17.10;54.60;;;;;;4960716;28;19981;-66
2022/06/17 05:09:27;;;;;;;;;;;17.10;54.70;;;;;;4957376;28;19918;-65
2022/06/17 05:11:55;;;;;;;;;;;17.20;54.40;;;;;;4959113;28;20575;-66
2022/06/17 05:14:30;;;;;;;;;;;17.20;54.50;;;;;;4956613;28;19918;-66
2022/06/17 05:16:57;;;;;;;;;;;17.30;54.80;;;;;;4957491;28;19953;-66
2022/06/17 05:19:22;;;;;;;;;;;17.30;55.00;;;;;;4957782;28;20413;-66
2022/06/17 05:21:48;;;;;;;;;;;17.40;54.60;;;;;;4959337;28;19945;-66
2022/06/17 05:24:13;;;;;;;;;;;17.40;54.50;;;;;;4958831;28;20009;-66
2022/06/17 05:26:39;;;;;;;;;;;17.50;54.90;;;;;;4955264;28;19922;-65
2022/06/17 05:29:07;;;;;;;;;;;17.50;54.70;;;;;;4952977;28;19914;-65
2022/06/17 05:31:32;;;;;;;;;;;17.80;54.60;;;;;;4957629;28;19926;-66
2022/06/17 05:33:58;;;;;;;;;;;17.70;54.70;;;;;;4959282;28;19925;-66
2022/06/17 05:36:23;;;;;;;;;;;17.80;54.80;;;;;;4957347;28;19929;-67
2022/06/17 05:38:49;;;;;;;;;;;17.90;54.50;;;;;;4960587;28;20156;-65
2022/06/17 05:41:19;;;;;;;;;;;18.00;54.90;;;;;;4954667;28;19921;-65
2022/06/17 05:43:44;;;;;;;;;;;18.10;55.30;;;;;;4954698;28;19929;-65
2022/06/17 05:46:10;;;;;;;;;;;18.20;54.80;;;;;;4958589;28;20356;-66
2022/06/17 05:48:35;;;;;;;;;;;18.30;54.80;;;;;;4958914;28;19921;-66
2022/06/17 05:51:01;;;;;;;;;;;18.40;55.60;;;;;;4956760;28;20014;-66
2022/06/17 05:53:26;;;;;;;;;;;18.50;55.00;;;;;;4958222;28;20005;-66
2022/06/17 05:55:54;;;;;;;;;;;18.60;55.30;;;;;;4957325;28;20029;-66
2022/06/17 05:58:20;;;;;;;;;;;18.60;54.70;;;;;;4957797;28;20378;-65
2022/06/17 06:00:46;;;;;;;;;;;18.70;54.70;;;;;;4956457;28;19922;-66
2022/06/17 06:03:16;;;;;;;;;;;18.80;54.50;;;;;;4957332;28;20444;-66
2022/06/17 06:05:42;;;;;;;;;;;18.90;54.40;;;;;;4959702;28;20011;-65
2022/06/17 06:08:07;;;;;;;;;;;19.00;54.50;;;;;;4959061;28;20449;-66
2022/06/17 06:10:33;;;;;;;;;;;19.10;54.00;;;;;;4953548;28;19976;-66
2022/06/17 06:13:03;;;;;;;;;;;19.20;54.00;;;;;;4957338;28;20393;-66
2022/06/17 06:15:38;;;;;;;;;;;19.40;53.70;;;;;;4957834;28;20005;-66
2022/06/17 06:18:04;;;;;;;;;;;19.50;53.50;;;;;;4958827;28;19921;-66
2022/06/17 06:20:30;;;;;;;;;;;19.60;53.30;;;;;;4957112;28;19942;-66
2022/06/17 06:22:55;;;;;;;;;;;19.70;53.20;;;;;;4958844;28;19914;-66
2022/06/17 06:25:21;;;;;;;;;;;19.80;53.10;;;;;;4956290;28;19914;-65
2022/06/17 06:27:47;;;;;;;;;;;19.90;53.00;;;;;;4957806;28;20056;-65
2022/06/17 06:30:18;;;;;;;;;;;20.00;52.80;;;;;;4957391;28;20120;-65
2022/06/17 06:32:47;;;;;;;;;;;20.10;52.70;;;;;;4956413;28;19921;-66
2022/06/17 06:35:14;;;;;;;;;;;20.20;52.60;;;;;;4957522;28;20005;-66
2022/06/17 06:37:39;;;;;;;;;;;20.30;52.70;;;;;;4958355;28;19918;-66
2022/06/17 06:40:05;;;;;;;;;;;20.30;52.90;;;;;;4959127;28;20439;-65
2022/06/17 06:42:30;;;;;;;;;;;20.40;52.30;;;;;;4957914;28;19922;-65
2022/06/17 06:44:56;;;;;;;;;;;20.50;52.30;;;;;;4957285;28;19959;-66
2022/06/17 06:47:21;;;;;;;;;;;20.50;52.80;;;;;;4954311;28;19918;-66
2022/06/17 06:49:47;;;;;;;;;;;20.60;52.10;;;;;;4969309;28;20299;-66
2022/06/17 06:52:13;;;;;;;;;;;20.60;52.10;;;;;;4955934;28;20269;-66
2022/06/17 06:54:38;;;;;;;;;;;20.70;51.60;;;;;;4954661;28;20530;-66
2022/06/17 06:57:04;;;;;;;;;;;20.80;51.90;;;;;;4950374;28;19921;-66
2022/06/17 06:59:29;;;;;;;;;;;20.90;51.90;;;;;;4950403;28;20373;-65
2022/06/17 07:01:55;;;;;;;;;;;20.90;51.60;;;;;;4949081;28;19969;-66
2022/06/17 07:04:21;;;;;;;;;;;21.00;51.20;;;;;;4950143;28;19914;-66
2022/06/17 07:06:47;;;;;;;;;;;21.00;51.40;;;;;;4944195;28;20222;-63
2022/06/17 07:09:12;;;;;;;;;;;21.10;51.40;;;;;;4944016;28;19914;-66
2022/06/17 07:11:39;;;;;;;;;;;21.20;51.50;;;;;;4949823;28;19918;-66
2022/06/17 07:14:04;;;;;;;;;;;21.30;51.60;;;;;;4952203;28;19977;-66
2022/06/17 07:16:30;;;;;;;;;;;21.30;51.50;;;;;;4943627;28;19930;-65
2022/06/17 07:18:55;;;;;;;;;;;21.40;51.50;;;;;;4951316;28;20353;-66
2022/06/17 07:21:21;;;;;;;;;;;21.50;51.20;;;;;;4955145;28;20484;-66
2022/06/17 07:23:46;;;;;;;;;;;21.60;51.30;;;;;;4953640;28;19921;-66
2022/06/17 07:26:17;;;;;;;;;;;21.70;51.30;;;;;;4955540;28;20451;-67
2022/06/17 07:28:43;;;;;;;;;;;21.80;51.10;;;;;;4952240;28;19929;-66
2022/06/17 07:31:08;;;;;;;;;;;21.90;51.10;;;;;;4983454;23;20304;-70
2022/06/17 07:33:34;;;;;;;;;;;22.00;51.10;;;;;;4971766;28;22070;-71
2022/06/17 07:36:01;;;;;;;;;;;22.00;51.00;;;;;;4973925;28;19949;-70
2022/06/17 07:41:22;;;;;;;;;;;22.20;51.20;;;;;;4978113;28;20415;-69
2022/06/17 07:43:48;;;;;;;;;;;22.20;51.30;;;;;;4972949;28;19918;-70
2022/06/17 07:46:13;;;;;;;;;;;22.30;51.00;;;;;;4970839;28;19980;-69
2022/06/17 07:48:40;;;;;;;;;;;22.30;51.00;;;;;;4969863;28;20385;-70
2022/06/17 07:51:06;;;;;;;;;;;22.40;51.10;;;;;;4975481;28;19918;-69
2022/06/17 07:53:34;;;;;;;;;;;22.50;51.00;;;;;;4969440;28;19922;-66
2022/06/17 07:56:00;;;;;;;;;;;22.60;51.10;;;;;;4966601;28;19922;-69
2022/06/17 07:58:26;;;;;;;;;;;22.70;50.80;;;;;;4970033;28;19914;-70
2022/06/17 08:00:52;;;;;;;;;;;22.80;51.00;;;;;;4971657;28;19914;-69
2022/06/17 08:03:18;;;;;;;;;;;22.90;50.70;;;;;;4968880;28;20447;-68
2022/06/17 08:06:02;;;;;;;;;;;23.00;50.70;;;;;;4972555;28;19918;-69
2022/06/17 08:08:28;;;;;;;;;;;23.10;50.30;;;;;;4974371;28;19918;-69
2022/06/17 08:10:55;;;;;;;;;;;23.30;50.20;;;;;;4973629;28;20258;-69
2022/06/17 08:13:21;;;;;;;;;;;23.30;50.10;;;;;;4977544;28;19917;-69
2022/06/17 08:15:48;;;;;;;;;;;23.40;50.20;;;;;;4974031;28;21671;-69
2022/06/17 08:18:13;;;;;;;;;;;23.60;49.90;;;;;;4977704;28;19925;-69
2022/06/17 08:20:39;;;;;;;;;;;23.60;50.00;;;;;;4976045;28;19914;-70
2022/06/17 08:23:06;;;;;;;;;;;23.80;50.10;;;;;;4975269;28;20468;-69
2022/06/17 08:25:33;;;;;;;;;;;23.90;50.00;;;;;;4976703;28;19929;-67
2022/06/17 08:28:02;;;;;;;;;;;23.90;49.90;;;;;;4977384;28;19945;-69
2022/06/17 08:32:56;;;;;;;;;;;24.30;49.80;;;;;;5012760;28;20856;-68
2022/06/17 08:35:29;;;;;;;;;;;24.40;49.60;;;;;;5012468;28;19917;-68
2022/06/17 08:37:55;;;;;;;;;;;24.50;49.30;;;;;;5012720;28;20024;-68
2022/06/17 08:40:24;;;;;;;;;;;24.70;48.60;;;;;;5017690;28;19925;-69
2022/06/17 08:42:56;;;;;;;;;;;24.80;48.50;;;;;;5017104;28;19913;-68
2022/06/17 08:45:35;;;;;;;;;;;24.90;47.80;;;;;;5018099;28;19921;-69
2022/06/17 08:48:10;;;;;;;;;;;24.90;47.40;;;;;;5009854;28;19918;-68
2022/06/17 08:50:56;;;;;;;;;;;25.00;48.00;;;;;;5014358;28;19939;-68
2022/06/17 08:53:21;;;;;;;;;;;25.10;47.70;;;;;;5009498;28;19980;-67
2022/06/17 08:56:09;;;;;;;;;;;25.20;47.30;;;;;;5014982;28;20323;-68
2022/06/17 08:58:47;;;;;;;;;;;25.30;47.80;;;;;;5013811;28;20167;-68
2022/06/17 09:01:27;;;;;;;;;;;25.40;47.30;;;;;;5014983;28;19917;-68
2022/06/17 09:04:12;;;;;;;;;;;25.50;47.30;;;;;;5011661;28;19980;-68
2022/06/17 09:06:37;;;;;;;;;;;25.50;46.40;;;;;;5009290;28;20299;-68
2022/06/17 09:09:09;;;;;;;;;;;25.60;45.90;;;;;;5009539;28;19921;-68
2022/06/17 09:11:46;;;;;;;;;;;25.70;46.20;;;;;;5012866;28;20072;-68
2022/06/17 09:14:18;;;;;;;;;;;25.70;45.70;;;;;;5012339;28;19913;-68
2022/06/17 09:16:52;;;;;;;;;;;25.80;45.70;;;;;;5017599;28;20008;-68
2022/06/17 09:19:21;;;;;;;;;;;25.90;45.80;;;;;;5012543;28;20376;-68
2022/06/17 09:21:49;;;;;;;;;;;25.90;46.50;;;;;;5014968;28;20474;-69
2022/06/17 09:24:20;;;;;;;;;;;26.00;46.90;;;;;;5017920;28;20012;-69
2022/06/17 09:26:50;;;;;;;;;;;26.10;47.10;;;;;;5015712;28;20299;-68
2022/06/17 09:29:20;;;;;;;;;;;26.30;46.80;;;;;;5020314;28;19941;-68
2022/06/17 09:31:47;;;;;;;;;;;26.40;46.80;;;;;;5017182;28;19917;-69
2022/06/17 09:34:19;;;;;;;;;;;26.50;46.50;;;;;;5018331;28;20295;-69
2022/06/17 09:36:48;;;;;;;;;;;26.60;43.00;;;;;;5017413;28;19968;-69
2022/06/17 09:39:15;;;;;;;;;;;26.70;44.00;;;;;;5024162;28;19916;-68
2022/06/17 09:41:45;;;;;;;;;;;26.80;44.80;;;;;;5022411;28;19941;-68
2022/06/17 09:44:16;;;;;;;;;;;26.80;45.40;;;;;;5017272;28;20391;-69
2022/06/17 09:46:50;;;;;;;;;;;26.80;44.50;;;;;;5017552;28;19917;-69
2022/06/17 09:49:35;;;;;;;;;;;26.90;45.50;;;;;;5016261;28;20330;-69
2022/06/17 09:52:00;;;;;;;;;;;26.90;45.70;;;;;;5018811;28;20291;-69
2022/06/17 09:54:34;;;;;;;;;;;27.00;45.70;;;;;;5018151;28;19913;-69
2022/06/17 09:57:06;;;;;;;;;;;27.20;45.60;;;;;;5018420;28;19932;-69
2022/06/17 09:59:32;;;;;;;;;;;27.20;46.00;;;;;;5013218;28;19921;-69
2022/06/17 10:01:59;;;;;;;;;;;27.30;45.40;;;;;;5018718;28;19921;-69
2022/06/17 10:04:25;;;;;;;;;;;27.50;44.60;;;;;;5017064;28;19913;-70
2022/06/17 10:07:05;;;;;;;;;;;27.60;43.60;;;;;;5017030;28;19921;-69
2022/06/17 10:09:34;;;;;;;;;;;27.60;45.50;;;;;;5015407;28;19921;-69
2022/06/17 10:12:00;;;;;;;;;;;27.80;45.30;;;;;;5016800;28;19921;-70
2022/06/17 10:14:31;;;;;;;;;;;27.90;45.40;;;;;;5016159;28;20519;-69
2022/06/17 10:19:49;;;;;;;;;;;28.00;42.80;;;;;;5015384;28;20494;-69
2022/06/17 10:22:18;;;;;;;;;;;28.00;43.60;;;;;;5016753;28;19986;-69
2022/06/17 10:25:06;;;;;;;;;;;28.00;44.50;;;;;;5016025;28;20008;-69
2022/06/17 10:27:38;;;;;;;;;;;28.10;42.80;;;;;;5015053;28;21188;-69
2022/06/17 10:30:04;;;;;;;;;;;28.20;43.70;;;;;;5013606;28;20458;-69
2022/06/17 10:32:32;;;;;;;;;;;28.20;44.10;;;;;;5015003;28;20020;-69
2022/06/17 10:34:58;;;;;;;;;;;28.30;42.40;;;;;;5016299;28;20387;-69
2022/06/17 10:37:25;;;;;;;;;;;28.40;44.50;;;;;;5018114;28;19917;-69
2022/06/17 10:39:50;;;;;;;;;;;28.50;44.50;;;;;;5014026;28;20004;-69
2022/06/17 10:42:17;;;;;;;;;;;28.50;42.20;;;;;;5018529;28;19999;-69
2022/06/17 10:44:44;;;;;;;;;;;28.60;41.40;;;;;;5013878;28;20362;-68
2022/06/17 10:47:29;;;;;;;;;;;28.60;41.70;;;;;;5015333;28;19945;-68
2022/06/17 10:49:57;;;;;;;;;;;28.60;42.10;;;;;;5014171;28;19917;-68
2022/06/17 10:52:37;;;;;;;;;;;28.60;41.60;;;;;;5010024;28;20071;-69
2022/06/17 10:55:03;;;;;;;;;;;28.60;41.00;;;;;;5012569;28;20538;-69
2022/06/17 10:57:30;;;;;;;;;;;28.60;42.40;;;;;;5017779;28;19917;-69
2022/06/17 10:59:56;;;;;;;;;;;28.70;43.10;;;;;;5016683;28;19932;-69
2022/06/17 11:02:23;;;;;;;;;;;28.70;44.20;;;;;;5017040;28;20004;-69
2022/06/17 11:04:56;;;;;;;;;;;28.80;43.90;;;;;;5016815;28;19913;-68
2022/06/17 11:07:41;;;;;;;;;;;28.90;43.90;;;;;;5017333;28;20380;-69
2022/06/17 11:10:27;;;;;;;;;;;29.00;43.60;;;;;;5015282;28;20368;-69
2022/06/17 11:12:52;;;;;;;;;;;29.10;43.50;;;;;;5016488;28;19919;-69
2022/06/17 11:15:28;;;;;;;;;;;29.10;43.20;;;;;;5014995;28;19917;-69
2022/06/17 11:18:13;;;;;;;;;;;29.20;40.30;;;;;;5015903;28;19924;-69
2022/06/17 11:20:39;;;;;;;;;;;29.20;42.00;;;;;;5014964;28;19920;-69
2022/06/17 11:23:22;;;;;;;;;;;29.30;43.20;;;;;;5015621;28;19913;-69
2022/06/17 11:25:49;;;;;;;;;;;29.30;43.30;;;;;;5017604;28;19924;-69
2022/06/17 11:28:18;;;;;;;;;;;29.40;43.50;;;;;;5018536;28;19913;-69
2022/06/17 11:30:56;;;;;;;;;;;29.40;43.70;;;;;;5016589;28;19927;-69
2022/06/17 11:33:44;;;;;;;;;;;29.40;43.20;;;;;;5017033;28;19921;-69
2022/06/17 11:36:19;;;;;;;;;;;29.50;43.00;;;;;;5015563;28;19913;-69
2022/06/17 11:38:45;;;;;;;;;;;29.50;40.00;;;;;;5016215;28;19918;-69
2022/06/17 11:41:17;;;;;;;;;;;29.50;42.00;;;;;;5015743;28;20424;-69
2022/06/17 11:43:43;;;;;;;;;;;29.50;42.30;;;;;;5017555;28;20424;-69
2022/06/17 11:46:15;;;;;;;;;;;29.50;41.70;;;;;;5016956;28;19916;-68
2022/06/17 11:48:43;;;;;;;;;;;29.50;41.90;;;;;;5022236;28;19917;-69
2022/06/17 11:51:16;;;;;;;;;;;29.60;40.20;;;;;;5015381;28;19913;-69
2022/06/17 11:53:47;;;;;;;;;;;29.60;40.60;;;;;;5014590;28;20368;-68
2022/06/17 11:56:25;;;;;;;;;;;29.60;40.20;;;;;;5015324;28;20145;-68
2022/06/17 11:58:56;;;;;;;;;;;29.60;40.90;;;;;;5015531;28;19917;-69
2022/06/17 12:01:22;;;;;;;;;;;29.60;41.60;;;;;;5015511;28;20372;-69
2022/06/17 12:03:47;;;;;;;;;;;29.60;41.50;;;;;;5016409;28;19938;-69
2022/06/17 12:06:18;;;;;;;;;;;29.70;41.60;;;;;;5013997;28;20292;-69
2022/06/17 12:08:47;;;;;;;;;;;29.70;40.70;;;;;;5015886;28;20050;-68
2022/06/17 12:11:16;;;;;;;;;;;29.70;40.80;;;;;;5013841;28;20459;-69
2022/06/17 12:13:44;;;;;;;;;;;29.80;41.10;;;;;;5021667;28;19924;-69
2022/06/17 12:16:25;;;;;;;;;;;29.80;40.90;;;;;;5015757;28;20328;-69
2022/06/17 12:18:53;;;;;;;;;;;29.80;41.50;;;;;;5015387;28;19924;-69
2022/06/17 12:21:29;;;;;;;;;;;29.90;41.40;;;;;;5029330;28;19963;-69
2022/06/17 12:24:11;;;;;;;;;;;30.00;41.30;;;;;;5013945;28;19944;-69
2022/06/17 12:26:46;;;;;;;;;;;30.00;41.40;;;;;;5015560;28;20378;-69
2022/06/17 12:29:17;;;;;;;;;;;30.10;38.80;;;;;;5015528;28;19920;-69
2022/06/17 12:31:51;;;;;;;;;;;30.10;40.00;;;;;;5013016;28;19924;-69
2022/06/17 12:34:30;;;;;;;;;;;30.20;40.50;;;;;;5016873;28;19921;-69
2022/06/17 12:36:58;;;;;;;;;;;30.20;39.80;;;;;;5016318;28;19924;-68
2022/06/17 12:39:32;;;;;;;;;;;30.20;37.10;;;;;;5017327;28;19924;-69
2022/06/17 12:42:01;;;;;;;;;;;30.20;39.20;;;;;;5014481;28;20440;-69
2022/06/17 12:44:38;;;;;;;;;;;30.20;38.00;;;;;;5016582;28;19925;-70
2022/06/17 12:47:12;;;;;;;;;;;30.20;39.00;;;;;;5016006;28;20000;-69
2022/06/17 12:55:43;;;;;;;;;;;30.20;36.10;;;;;;5018061;28;20471;-69
2022/06/17 12:58:15;;;;;;;;;;;30.20;36.30;;;;;;5017743;28;19921;-69
2022/06/17 13:00:43;;;;;;;;;;;30.10;38.00;;;;;;5024365;28;20201;-69
2022/06/17 13:03:12;;;;;;;;;;;30.10;38.30;;;;;;5017939;28;19936;-69
2022/06/17 13:05:45;;;;;;;;;;;30.10;37.00;;;;;;5018210;28;20377;-69
2022/06/17 13:08:10;;;;;;;;;;;30.10;37.00;;;;;;5019700;28;19913;-69
2022/06/17 13:10:39;;;;;;;;;;;30.10;38.30;;;;;;5018726;28;19913;-68
2022/06/17 13:13:04;;;;;;;;;;;30.10;38.40;;;;;;5019812;28;20012;-69
2022/06/17 13:15:34;;;;;;;;;;;30.20;38.60;;;;;;5019266;28;20019;-69
2022/06/17 13:18:04;;;;;;;;;;;30.20;38.20;;;;;;5019453;28;19917;-69
2022/06/17 13:20:40;;;;;;;;;;;30.20;37.60;;;;;;5015492;28;19967;-69
2022/06/17 13:23:15;;;;;;;;;;;30.30;37.50;;;;;;5021178;28;19913;-69
2022/06/17 13:25:56;;;;;;;;;;;30.30;38.20;;;;;;5017256;28;19917;-69
2022/06/17 13:28:21;;;;;;;;;;;30.30;38.90;;;;;;5024054;28;20000;-69
2022/06/17 13:30:55;;;;;;;;;;;30.40;34.70;;;;;;5018317;28;20008;-69
2022/06/17 13:33:24;;;;;;;;;;;30.40;36.30;;;;;;5018773;28;19916;-69
2022/06/17 13:36:13;;;;;;;;;;;30.40;34.40;;;;;;5031912;28;19913;-69
2022/06/17 13:38:39;;;;;;;;;;;30.40;34.90;;;;;;5019853;28;20168;-70
2022/06/17 13:41:09;;;;;;;;;;;30.40;35.10;;;;;;5016923;28;19924;-70
2022/06/17 13:43:39;;;;;;;;;;;30.30;32.00;;;;;;5017625;28;20424;-69
2022/06/17 13:46:13;;;;;;;;;;;30.30;34.30;;;;;;5016585;28;19917;-70
2022/06/17 13:48:47;;;;;;;;;;;30.20;36.90;;;;;;5019511;28;20294;-69
2022/06/17 13:51:29;;;;;;;;;;;30.20;36.80;;;;;;5016348;28;19936;-69
2022/06/17 13:54:13;;;;;;;;;;;30.30;38.50;;;;;;5018762;28;19980;-70
2022/06/17 13:56:44;;;;;;;;;;;30.30;38.00;;;;;;5016531;28;19928;-70
2022/06/17 13:59:47;;;;;;;;;;;30.40;36.20;;;;;;5018521;28;19937;-70
2022/06/17 14:02:12;;;;;;;;;;;30.60;35.00;;;;;;5026418;28;20596;-69
2022/06/17 14:04:59;;;;;;;;;;;30.60;36.30;;;;;;5019699;28;19917;-70
2022/06/17 14:07:44;;;;;;;;;;;30.60;37.00;;;;;;5019653;28;20428;-70
2022/06/17 14:10:28;;;;;;;;;;;30.70;36.20;;;;;;5016034;28;20129;-69
2022/06/17 14:12:54;;;;;;;;;;;30.70;37.40;;;;;;5014457;28;19919;-70
2022/06/17 14:15:27;;;;;;;;;;;30.80;37.60;;;;;;5016364;28;19913;-69
2022/06/17 14:17:55;;;;;;;;;;;30.90;34.60;;;;;;5016176;28;20462;-70
2022/06/17 14:20:26;;;;;;;;;;;31.00;35.60;;;;;;5016210;28;19917;-70
2022/06/17 14:23:01;;;;;;;;;;;31.10;37.00;;;;;;5014664;28;19957;-69
2022/06/17 14:25:42;;;;;;;;;;;31.10;37.00;;;;;;5016954;28;19924;-70
2022/06/17 14:28:28;;;;;;;;;;;31.20;37.30;;;;;;5015191;28;20295;-69
2022/06/17 14:33:55;;;;;;;1.20;0.90;;;31.50;37.00;;;;;;5041904;27;20370;-65
2022/06/17 14:36:40;;;;;;;1.38;0.85;;;31.50;35.40;;;;;;5039509;28;20488;-65
2022/06/17 14:39:19;;;;;;;3.53;1.00;;;31.60;34.30;;;;;;5021092;28;20030;-65
2022/06/17 14:42:01;;;;;;;2.55;0.90;;;31.60;33.70;;;;;;5029505;28;20520;-66
2022/06/17 14:44:35;;;;;;;1.42;0.70;;;31.70;34.40;;;;;;5019120;28;20092;-65
2022/06/17 14:47:23;;;;;;;1.45;1.00;;;31.80;32.80;;;;;;5020418;28;20033;-65
2022/06/17 14:50:19;;;;;;;2.63;0.90;;;31.90;32.20;;;;;;5023731;28;20489;-65